Great Sankey, United Kingdom
Current Conditions -  °F | °C
As of 4:20 AM on Saturday 20 Dec 2014 (Local Time) from EGGP Reporting Station
Rain Showers Rain Showers  
Wind Chill: 37°   Ceiling: Unl
Heat Index: 46°   Visibility: 6mi
Dew Point: 41°   Wind: 29mph
Humidity: 81%   Direction: 270°W
Pressure: 30.12"   Gusts: NA
Location:  53.39°N, 2.64°W
Report Text: EGGP 200420Z 27025KT 9999 -SHRA FEW020 SCT045 08/05 Q1020
Loading
Personal Weather Stations






























Interactive Weather Map New forecast layout! Learn more

10-Day Weather Forecast

Advertisements
Track Severe Weather on mobile